createdAt,value
2019-04-24T00:00:23.756Z,9.30
2019-04-24T00:03:13.131Z,9.30
2019-04-24T00:06:29.947Z,9.20
2019-04-24T00:09:13.094Z,9.57
2019-04-24T00:12:11.532Z,9.40
2019-04-24T00:15:27.698Z,8.77
2019-04-24T00:18:22.468Z,9.87
2019-04-24T00:26:59.269Z,10.07
2019-04-24T00:32:30.842Z,9.73
2019-04-24T00:38:17.726Z,10.37
2019-04-24T00:41:05.198Z,10.40
2019-04-24T00:43:57.382Z,12.60
2019-04-24T00:46:41.903Z,10.93
2019-04-24T00:49:27.437Z,10.43
2019-04-24T00:52:07.481Z,9.50
2019-04-24T00:54:55.738Z,9.77
2019-04-24T01:00:33.666Z,9.60
2019-04-24T01:07:12.565Z,9.37
2019-04-24T01:10:15.635Z,9.60
2019-04-24T01:15:33.714Z,9.80
2019-04-24T01:18:30.781Z,9.63
2019-04-24T01:21:34.701Z,10.37
2019-04-24T01:26:58.354Z,9.97
2019-04-24T01:29:50.816Z,9.90
2019-04-24T01:32:36.649Z,9.37
2019-04-24T01:36:05.294Z,9.47
2019-04-24T01:38:35.785Z,9.40
2019-04-24T01:41:22.515Z,9.53
2019-04-24T01:44:11.623Z,9.70
2019-04-24T01:47:06.436Z,9.70
2019-04-24T01:52:42.139Z,9.87
2019-04-24T01:55:18.555Z,10.10
2019-04-24T01:58:14.108Z,10.03
2019-04-24T02:01:11.985Z,9.37
2019-04-24T02:04:00.142Z,10.73
2019-04-24T02:06:39.262Z,9.93
2019-04-24T02:10:12.489Z,10.63
2019-04-24T02:18:27.950Z,11.27
2019-04-24T02:21:01.579Z,10.67
2019-04-24T02:23:59.107Z,11.30
2019-04-24T02:33:28.380Z,11.73
2019-04-24T02:35:46.972Z,11.90
2019-04-24T02:38:39.958Z,11.27
2019-04-24T02:41:44.559Z,11.27
2019-04-24T02:44:37.991Z,11.97
2019-04-24T02:47:02.179Z,11.40
2019-04-24T02:50:02.565Z,11.33
2019-04-24T02:52:42.649Z,11.10
2019-04-24T02:55:13.313Z,11.90
2019-04-24T02:58:13.447Z,11.33
2019-04-24T03:09:31.424Z,11.27
2019-04-24T03:18:12.835Z,12.73
2019-04-24T03:21:08.981Z,11.00
2019-04-24T03:23:54.592Z,11.63
2019-04-24T03:27:00.214Z,11.13
2019-04-24T03:29:41.346Z,11.47
2019-04-24T03:46:30.213Z,11.07
2019-04-24T03:49:38.929Z,11.63
2019-04-24T03:55:26.297Z,12.00
2019-04-24T04:03:58.228Z,11.60
2019-04-24T04:06:49.830Z,11.33
2019-04-24T04:12:25.249Z,11.03
2019-04-24T04:20:58.943Z,11.20
2019-04-24T04:29:47.328Z,11.67
2019-04-24T04:32:58.684Z,11.53
2019-04-24T04:35:51.730Z,12.17
2019-04-24T04:38:43.635Z,11.83
2019-04-24T04:41:47.158Z,12.37
2019-04-24T04:44:36.080Z,11.70
2019-04-24T04:51:03.012Z,11.70
2019-04-24T04:56:44.075Z,11.20
2019-04-24T04:59:13.520Z,11.97
2019-04-24T05:05:26.995Z,11.53
2019-04-24T05:10:42.390Z,11.33
2019-04-24T05:14:00.716Z,10.93
2019-04-24T05:19:23.819Z,10.83
2019-04-24T05:24:49.064Z,10.97
2019-04-24T05:27:34.319Z,11.80
2019-04-24T05:30:36.229Z,11.27
2019-04-24T05:36:02.716Z,10.30
2019-04-24T05:42:43.900Z,10.80
2019-04-24T05:45:06.012Z,10.47
2019-04-24T05:53:58.668Z,11.17
2019-04-24T05:57:10.357Z,10.57
2019-04-24T06:05:27.028Z,10.87
2019-04-24T06:08:27.486Z,10.67
2019-04-24T06:11:13.372Z,11.17
2019-04-24T06:13:50.512Z,10.97
2019-04-24T06:17:19.450Z,10.50
2019-04-24T06:20:17.311Z,10.53
2019-04-24T06:23:02.459Z,10.77
2019-04-24T06:29:17.546Z,10.47
2019-04-24T06:34:11.810Z,10.60
2019-04-24T06:37:27.442Z,10.60
2019-04-24T06:40:27.321Z,10.90
2019-04-24T06:45:51.227Z,10.87
2019-04-24T06:48:37.953Z,10.03
2019-04-24T06:51:28.524Z,10.60
2019-04-24T06:54:21.803Z,10.63
2019-04-24T07:09:06.204Z,10.47
2019-04-24T07:11:53.819Z,10.50
2019-04-24T07:14:46.001Z,11.37
2019-04-24T07:17:49.108Z,11.57
2019-04-24T07:23:29.714Z,10.53
2019-04-24T07:26:30.670Z,11.03
2019-04-24T07:29:15.894Z,12.10
2019-04-24T07:32:25.715Z,11.07
2019-04-24T07:35:35.067Z,11.50
2019-04-24T07:38:21.876Z,11.33
2019-04-24T07:41:33.815Z,11.83
2019-04-24T07:44:16.036Z,11.33
2019-04-24T07:47:09.206Z,11.90
2019-04-24T07:49:58.590Z,11.93
2019-04-24T07:53:06.056Z,12.07
2019-04-24T07:55:50.608Z,12.63
2019-04-24T07:58:28.869Z,12.30
2019-04-24T08:01:29.642Z,12.47
2019-04-24T08:04:09.587Z,12.27
2019-04-24T08:13:05.333Z,12.50
2019-04-24T08:15:33.663Z,12.80
2019-04-24T08:20:59.745Z,13.43
2019-04-24T08:24:00.967Z,13.80
2019-04-24T08:26:59.359Z,14.17
2019-04-24T08:29:49.054Z,13.40
2019-04-24T08:32:33.112Z,13.13
2019-04-24T08:35:18.029Z,14.23
2019-04-24T08:38:37.658Z,14.07
2019-04-24T08:44:54.205Z,13.40
2019-04-24T08:47:36.020Z,13.60
2019-04-24T08:50:33.775Z,13.37
2019-04-24T08:53:02.062Z,13.63
2019-04-24T08:55:58.006Z,12.67
2019-04-24T09:04:51.109Z,13.73
2019-04-24T09:07:23.499Z,13.07
2019-04-24T09:10:51.752Z,13.03
2019-04-24T09:16:30.131Z,14.33
2019-04-24T09:26:03.082Z,15.00
2019-04-24T09:31:19.453Z,16.73
2019-04-24T09:34:04.247Z,16.97
2019-04-24T09:37:11.366Z,17.83
2019-04-24T09:46:05.846Z,17.27
2019-04-24T09:54:56.957Z,16.53
2019-04-24T09:57:42.182Z,16.13
2019-04-24T10:00:37.276Z,16.03
2019-04-24T10:03:25.182Z,14.70
2019-04-24T10:06:20.742Z,15.17
2019-04-24T10:08:55.490Z,14.60
2019-04-24T10:14:45.111Z,15.10
2019-04-24T10:17:42.932Z,14.57
2019-04-24T10:20:22.125Z,14.90
2019-04-24T10:23:27.049Z,13.87
2019-04-24T10:26:13.238Z,14.67
2019-04-24T10:35:40.457Z,12.80
2019-04-24T10:38:43.125Z,12.90
2019-04-24T10:41:58.283Z,12.70
2019-04-24T10:56:34.434Z,12.53
2019-04-24T10:59:15.312Z,12.87
2019-04-24T11:05:45.018Z,12.30
2019-04-24T11:08:30.078Z,12.60
2019-04-24T11:14:36.428Z,11.30
2019-04-24T11:20:47.725Z,11.30
2019-04-24T11:23:27.610Z,11.13
2019-04-24T11:29:31.074Z,12.03
2019-04-24T11:32:52.146Z,11.77
2019-04-24T11:41:59.966Z,11.30
2019-04-24T11:44:41.185Z,10.73
2019-04-24T11:51:04.657Z,11.10
2019-04-24T11:56:11.626Z,11.30
2019-04-24T11:58:46.443Z,11.37
2019-04-24T12:05:33.780Z,11.50
2019-04-24T12:08:09.170Z,11.60
2019-04-24T12:11:11.155Z,11.50
2019-04-24T12:13:58.494Z,11.93
2019-04-24T12:16:52.986Z,11.73
2019-04-24T12:20:38.113Z,12.53
2019-04-24T12:23:10.270Z,11.47
2019-04-24T12:32:09.868Z,11.33
2019-04-24T12:35:10.079Z,11.63
2019-04-24T12:38:06.658Z,10.80
2019-04-24T12:41:05.979Z,11.63
2019-04-24T12:44:05.661Z,11.57
2019-04-24T12:47:08.068Z,11.57
2019-04-24T12:49:50.054Z,11.33
2019-04-24T12:52:30.886Z,11.70
2019-04-24T12:55:45.391Z,10.63
2019-04-24T12:59:01.063Z,11.03
2019-04-24T13:04:52.260Z,11.20
2019-04-24T13:07:33.589Z,12.20
2019-04-24T13:10:24.969Z,11.47
2019-04-24T13:13:13.006Z,11.43
2019-04-24T13:16:05.466Z,11.73
2019-04-24T13:19:12.826Z,12.30
2019-04-24T13:21:30.645Z,11.70
2019-04-24T13:24:59.438Z,12.13
2019-04-24T13:28:40.545Z,12.70
2019-04-24T13:31:19.043Z,12.80
2019-04-24T13:33:57.200Z,11.87
2019-04-24T13:37:03.118Z,12.13
2019-04-24T13:39:41.375Z,12.13
2019-04-24T13:45:32.199Z,12.13
2019-04-24T13:50:46.309Z,11.33
2019-04-24T13:56:42.405Z,12.10
2019-04-24T13:59:09.187Z,11.60
2019-04-24T14:04:49.336Z,11.53
2019-04-24T14:10:46.041Z,11.30
2019-04-24T14:13:05.007Z,11.10
2019-04-24T14:16:10.102Z,11.70
2019-04-24T14:19:07.551Z,12.03
2019-04-24T14:21:49.116Z,11.50
2019-04-24T14:24:39.446Z,10.97
2019-04-24T14:27:23.299Z,11.43
2019-04-24T14:30:15.662Z,11.53
2019-04-24T14:36:22.169Z,11.77
2019-04-24T14:38:48.150Z,11.50
2019-04-24T14:41:31.066Z,12.13
2019-04-24T14:44:59.483Z,12.20
2019-04-24T14:47:27.632Z,11.60
2019-04-24T14:50:26.325Z,11.87
2019-04-24T14:52:59.827Z,12.10
2019-04-24T14:55:54.993Z,11.90
2019-04-24T14:58:48.262Z,12.57
2019-04-24T15:01:22.040Z,12.30
2019-04-24T15:04:15.400Z,13.00
2019-04-24T15:09:52.680Z,14.03
2019-04-24T15:12:43.104Z,13.57
2019-04-24T15:15:24.978Z,15.13
2019-04-24T15:18:54.885Z,15.03
2019-04-24T15:21:09.003Z,14.93
2019-04-24T15:24:25.374Z,15.67
2019-04-24T15:29:35.001Z,17.10
2019-04-24T15:32:28.072Z,18.37
2019-04-24T15:35:20.568Z,17.60
2019-04-24T15:37:59.178Z,18.30
2019-04-24T15:41:11.946Z,17.00
2019-04-24T15:43:25.216Z,17.77
2019-04-24T15:46:15.531Z,18.90
2019-04-24T15:51:32.521Z,18.70
2019-04-24T15:54:13.381Z,18.60
2019-04-24T15:57:00.012Z,18.27
2019-04-24T16:00:13.458Z,19.37
2019-04-24T16:03:27.039Z,20.07
2019-04-24T16:05:24.694Z,20.80
2019-04-24T16:08:12.915Z,20.53
2019-04-24T16:10:59.186Z,21.00
2019-04-24T16:13:53.238Z,21.23
2019-04-24T16:17:02.123Z,20.80
2019-04-24T16:19:57.011Z,19.90
2019-04-24T16:22:38.506Z,21.00
2019-04-24T16:31:04.715Z,18.50
2019-04-24T16:33:56.794Z,18.30
2019-04-24T16:36:42.624Z,18.10
2019-04-24T16:39:21.549Z,17.80
2019-04-24T16:45:59.258Z,17.80
2019-04-24T16:48:29.640Z,18.40
2019-04-24T16:51:33.118Z,17.97
2019-04-24T16:56:50.841Z,18.17
2019-04-24T16:59:37.545Z,17.47
2019-04-24T17:02:21.266Z,17.87
2019-04-24T17:05:19.242Z,18.20
2019-04-24T17:11:06.098Z,18.37
2019-04-24T17:17:22.572Z,19.10
2019-04-24T17:20:08.097Z,18.97
2019-04-24T17:22:50.789Z,18.37
2019-04-24T17:25:40.069Z,18.73
2019-04-24T17:28:34.629Z,18.60
2019-04-24T17:31:10.839Z,19.87
2019-04-24T17:34:05.433Z,18.80
2019-04-24T17:36:26.549Z,19.57
2019-04-24T17:39:18.816Z,18.67
2019-04-24T17:42:12.548Z,19.40
2019-04-24T17:45:23.945Z,19.53
2019-04-24T17:48:07.283Z,18.43
2019-04-24T17:51:01.615Z,19.30
2019-04-24T17:53:46.626Z,19.63
2019-04-24T17:56:45.768Z,20.00
2019-04-24T17:58:53.408Z,18.93
2019-04-24T18:01:41.190Z,19.63
2019-04-24T18:04:27.391Z,19.23
2019-04-24T18:07:14.621Z,18.70
2019-04-24T18:10:00.688Z,19.23
2019-04-24T18:12:47.595Z,19.00
2019-04-24T18:15:34.176Z,19.67
2019-04-24T18:18:20.424Z,19.33
2019-04-24T18:21:06.943Z,19.80
2019-04-24T18:23:53.364Z,20.43
2019-04-24T18:26:45.180Z,20.27
2019-04-24T18:29:31.954Z,20.00
2019-04-24T18:32:21.130Z,20.43
2019-04-24T18:35:07.660Z,20.13
2019-04-24T18:38:05.685Z,20.13
2019-04-24T18:40:41.587Z,19.70
2019-04-24T18:43:28.085Z,21.23
2019-04-24T18:46:15.201Z,20.17
2019-04-24T18:49:03.103Z,19.90
2019-04-24T18:51:49.615Z,20.47
2019-04-24T18:54:36.179Z,20.03
2019-04-24T18:57:22.580Z,20.20
2019-04-24T19:00:10.134Z,19.83
2019-04-24T19:02:57.475Z,20.13
2019-04-24T19:05:43.867Z,20.20
2019-04-24T19:08:30.223Z,19.67
2019-04-24T19:11:17.318Z,20.03
2019-04-24T19:14:03.953Z,19.23
2019-04-24T19:16:50.144Z,20.83
2019-04-24T19:19:36.644Z,19.87
2019-04-24T19:22:22.380Z,19.67
2019-04-24T19:25:09.488Z,20.23
2019-04-24T19:27:55.837Z,19.77
2019-04-24T19:30:42.098Z,20.53
2019-04-24T19:33:28.483Z,19.47
2019-04-24T19:36:14.687Z,20.37
2019-04-24T19:39:01.996Z,20.07
2019-04-24T19:41:48.338Z,20.30
2019-04-24T19:44:34.781Z,20.43
2019-04-24T19:47:32.646Z,20.00
2019-04-24T19:50:09.379Z,19.83
2019-04-24T19:52:55.740Z,20.03
2019-04-24T19:55:42.142Z,19.80
2019-04-24T19:58:28.515Z,20.47
2019-04-24T20:01:15.613Z,19.73
2019-04-24T20:04:02.144Z,20.07
2019-04-24T20:06:48.498Z,20.23
2019-04-24T20:10:02.581Z,19.67
2019-04-24T20:12:48.903Z,19.33
2019-04-24T20:15:35.338Z,19.37
2019-04-24T20:18:22.974Z,18.83
2019-04-24T20:21:11.120Z,19.87
2019-04-24T20:23:38.860Z,19.10
2019-04-24T20:26:06.369Z,18.80
2019-04-24T20:28:33.916Z,19.67
2019-04-24T20:31:01.801Z,18.43
2019-04-24T20:33:29.457Z,20.57
2019-04-24T20:35:56.889Z,19.57
2019-04-24T20:38:24.959Z,19.53
2019-04-24T20:40:52.498Z,20.13
2019-04-24T20:43:20.034Z,19.17
2019-04-24T20:45:47.547Z,19.10
2019-04-24T20:48:16.593Z,19.47
2019-04-24T20:50:44.183Z,19.33
2019-04-24T20:53:12.339Z,19.97
2019-04-24T20:55:41.339Z,19.63
2019-04-24T20:58:09.240Z,18.73
2019-04-24T21:00:36.772Z,18.43
2019-04-24T21:03:04.319Z,19.00
2019-04-24T21:05:46.283Z,19.50
2019-04-24T21:08:20.966Z,19.30
2019-04-24T21:10:48.653Z,18.70
2019-04-24T21:13:16.159Z,18.13
2019-04-24T21:15:45.849Z,19.23
2019-04-24T21:18:12.944Z,19.03
2019-04-24T21:20:40.382Z,19.47
2019-04-24T21:23:07.909Z,19.00
2019-04-24T21:25:35.417Z,19.30
2019-04-24T21:28:02.895Z,18.90
2019-04-24T21:30:30.390Z,19.47
2019-04-24T21:32:57.876Z,19.20
2019-04-24T21:35:25.327Z,18.67
2019-04-24T21:37:52.742Z,18.10
2019-04-24T21:40:22.128Z,18.37
2019-04-24T21:42:49.591Z,17.20
2019-04-24T21:45:17.156Z,18.73
2019-04-24T21:47:44.632Z,18.43
2019-04-24T21:50:13.051Z,18.80
2019-04-24T21:52:42.146Z,18.60
2019-04-24T21:55:11.217Z,19.93
2019-04-24T21:57:57.068Z,19.07
2019-04-24T22:00:46.509Z,19.53
2019-04-24T22:03:21.873Z,18.47
2019-04-24T22:05:52.224Z,19.43
2019-04-24T22:08:20.268Z,18.43
2019-04-24T22:10:47.776Z,19.67
2019-04-24T22:13:15.404Z,19.53
2019-04-24T22:15:42.821Z,19.43
2019-04-24T22:18:12.133Z,18.50
2019-04-24T22:20:44.097Z,18.57
2019-04-24T22:23:35.851Z,17.80
2019-04-24T22:26:04.154Z,18.70
2019-04-24T22:28:32.142Z,18.83
2019-04-24T22:31:18.689Z,19.07
2019-04-24T22:33:53.719Z,20.03
2019-04-24T22:36:21.968Z,18.63
2019-04-24T22:39:08.932Z,18.83
2019-04-24T22:41:36.483Z,18.40
2019-04-24T22:44:04.106Z,18.17
2019-04-24T22:46:32.572Z,19.77
2019-04-24T22:49:01.434Z,19.07
2019-04-24T22:51:29.098Z,18.60
2019-04-24T22:53:56.677Z,18.90
2019-04-24T22:56:24.185Z,18.30
2019-04-24T22:58:51.608Z,18.63
2019-04-24T23:01:19.129Z,19.40
2019-04-24T23:03:46.738Z,18.77
2019-04-24T23:06:14.257Z,18.00
2019-04-24T23:08:42.416Z,19.50
2019-04-24T23:11:11.869Z,18.90
2019-04-24T23:13:40.005Z,19.30
2019-04-24T23:16:09.217Z,18.77
2019-04-24T23:18:37.464Z,18.63
2019-04-24T23:21:31.843Z,17.73
2019-04-24T23:24:22.539Z,18.60
2019-04-24T23:27:09.535Z,18.50
2019-04-24T23:29:53.908Z,18.10
2019-04-24T23:32:41.159Z,18.57
2019-04-24T23:35:09.172Z,19.13
2019-04-24T23:37:36.699Z,18.83
2019-04-24T23:40:06.479Z,18.63
2019-04-24T23:42:34.776Z,19.07
2019-04-24T23:45:02.514Z,18.93
2019-04-24T23:47:31.163Z,18.23
2019-04-24T23:49:59.324Z,18.33
2019-04-24T23:52:26.844Z,18.23
2019-04-24T23:55:13.810Z,17.70
2019-04-24T23:57:41.879Z,18.53
